M I D A S
Marine Information and Data Acquisition System
Tripno 177 of the Zeeleeuw from 2001-11-12 07:05:00 to 2001-11-14 18:20:00
Back to CruiseResearch ActivitiesStationsMapUnderway DataData graphs

EquipmentUnitsComments
TimeDGPSUTC
LatitudeDGPSDM.mWGS84
LongitudeDGPSDM.mWGS84
SpeedMeteo Stationm/sRelative wind speed
DirectionMeteo StationdegRelative wind direction
TemperatureMeteo Stationdeg CelciusAir temperature
PressureMeteo StationPaAtmospheric pressure
HumidityMeteo Station%Relative humidity
Missing or incorrect values are displayed as -999
Metereological data collected by the RV Zeeleeuw from 2001-11-12 07:05:00 to 2001-11-14 18:20:00
Time Latitude Longitude Speed Direction Temperature Pressure Humidity
2001-11-12 08:48 51°13.69 2°55.907 3.3 223 11 101470 91
2001-11-12 08:49 51°13.689 2°55.906 2.1 199 11 101470 91
2001-11-12 08:50 51°13.689 2°55.906 3.2 223 11 101470 91
2001-11-12 08:51 51°13.69 2°55.906 2.6 223 11 101470 91
2001-11-12 08:52 51°13.69 2°55.907 2.2 236 11 101470 91
2001-11-12 08:53 51°13.69 2°55.907 1.6 203 11 101470 91
2001-11-12 08:54 51°13.69 2°55.906 1.8 219 11 101470 91
2001-11-12 08:55 51°13.69 2°55.906 2.3 201 11 101470 91
2001-11-12 08:56 51°13.69 2°55.907 2.2 208 11 101470 92
2001-11-12 08:57 51°13.69 2°55.907 1.3 208 11 101470 91
2001-11-12 08:58 51°13.69 2°55.907 2.1 223 11 101470 92
2001-11-12 08:59 51°13.69 2°55.907 2 214 11 101470 91
2001-11-12 09:00 51°13.69 2°55.907 2.5 190 11.1 101470 91
2001-11-12 09:01 51°13.689 2°55.907 3.1 197 11.1 101470 92
2001-11-12 09:02 51°13.689 2°55.906 1.1 316 11.1 101470 92
2001-11-12 09:03 51°13.689 2°55.906 2.2 220 11.1 101470 91
2001-11-12 09:04 51°13.688 2°55.906 2.1 193 11.1 101470 91
2001-11-12 09:05 51°13.687 2°55.905 2.5 153 11.1 101460 91
2001-11-12 09:06 51°13.685 2°55.905 2 177 11.2 101470 92
2001-11-12 09:07 51°13.687 2°55.86 3.6 160 11.2 101460 92
2001-11-12 09:08 51°13.681 2°55.796 5.6 117 11.3 101460 92
2001-11-12 09:09 51°13.672 2°55.757 1.6 126 11.3 101460 92
2001-11-12 09:10 51°13.698 2°55.759 1.3 320 11.3 101460 91
2001-11-12 09:11 51°13.703 2°55.755 0.6 42 11.3 101460 91
2001-11-12 09:12 51°13.706 2°55.75 0.9 209 11.3 101460 91
2001-11-12 09:13 51°13.711 2°55.743 1.6 3 11.3 101460 91
2001-11-12 09:14 51°13.726 2°55.722 2.7 19 11.3 101460 91
2001-11-12 09:15 51°13.809 2°55.652 4.9 11 11.4 101450 91
2001-11-12 09:16 51°13.94 2°55.558 7.1 16 11.4 101450 91
2001-11-12 09:17 51°14.068 2°55.463 10.9 360 11.4 101450 91
2001-11-12 09:18 51°14.189 2°55.354 9.2 15 11.4 101450 91
2001-11-12 09:19 51°14.291 2°55.208 10.3 18 11.4 101440 90
2001-11-12 09:20 51°14.382 2°55.034 10.9 24 11.4 101440 90
2001-11-12 09:21 51°14.518 2°54.925 10.4 13 11.4 101440 90
2001-11-12 09:22 51°14.673 2°54.785 12.6 356 11.4 101430 91
2001-11-12 09:23 51°14.842 2°54.629 12.7 5 11.4 101430 91
2001-11-12 09:24 51°15.015 2°54.469 13.3 2 11.4 101430 91
2001-11-12 09:25 51°15.205 2°54.338 13.1 14 11.4 101430 90
2001-11-12 09:26 51°15.416 2°54.248 14.2 15 11.4 101430 90
2001-11-12 09:27 51°15.564 2°54.168 9.5 11 11.5 101430 90
2001-11-12 09:28 51°15.656 2°54.078 12.8 357 11.5 101430 89
2001-11-12 09:29 51°15.822 2°53.893 14.8 359 11.5 101430 89
2001-11-12 09:30 51°16.007 2°53.703 13.9 3 11.6 101430 89
2001-11-12 09:31 51°16.197 2°53.522 14.8 7 11.6 101430 89
2001-11-12 09:32 51°16.388 2°53.342 14.4 357 11.6 101420 88
2001-11-12 09:33 51°16.577 2°53.16 16.4 3 11.7 101420 88
2001-11-12 09:34 51°16.769 2°52.989 13.6 3 11.7 101410 88
2001-11-12 09:35 51°16.958 2°52.793 16 3 11.7 101420 88
2001-11-12 09:36 51°17.139 2°52.584 15.5 1 11.8 101410 88
2001-11-12 09:37 51°17.316 2°52.367 15.3 2 11.7 101410 87
2001-11-12 09:38 51°17.504 2°52.172 15.4 1 11.7 101410 87
2001-11-12 09:39 51°17.685 2°51.962 16.7 6 11.7 101400 87
2001-11-12 09:40 51°17.872 2°51.762 14.9 359 11.8 101400 86
2001-11-12 09:41 51°18.061 2°51.569 16.4 353 11.8 101400 86
2001-11-12 09:42 51°18.257 2°51.393 16 16 11.8 101400 86
2001-11-12 09:43 51°18.492 2°51.459 7 28 11.8 101410 86
2001-11-12 09:44 51°18.723 2°51.62 5.6 35 11.8 101410 86
2001-11-12 09:45 51°18.964 2°51.663 15.8 17 11.8 101400 86
2001-11-12 09:46 51°19.177 2°51.542 16.6 16 11.8 101400 86
2001-11-12 09:47 51°19.377 2°51.376 15.8 5 11.8 101400 86
2001-11-12 09:48 51°19.577 2°51.215 16 11 11.9 101390 86
2001-11-12 09:49 51°19.791 2°51.095 14.7 7 11.9 101390 86
2001-11-12 09:50 51°19.998 2°50.958 17.3 13 11.9 101380 85
2001-11-12 09:51 51°20.203 2°50.813 17.7 21 11.9 101400 85
2001-11-12 09:52 51°20.424 2°50.715 15.5 19 11.9 101390 84
2001-11-12 09:53 51°20.645 2°50.611 17.3 17 11.9 101380 84
2001-11-12 09:54 51°20.869 2°50.508 15.7 18 11.9 101400 85
2001-11-12 09:55 51°21.093 2°50.402 15.2 24 11.9 101380 84
2001-11-12 09:56 51°21.311 2°50.29 15.6 18 11.9 101380 84
2001-11-12 09:57 51°21.546 2°50.212 14.7 16 12 101390 84
2001-11-12 09:58 51°21.77 2°50.104 15.1 8 12 101380 84
2001-11-12 09:59 51°21.985 2°49.984 14.9 13 12.1 101380 84
2001-11-12 10:00 51°22.2 2°49.863 15.5 20 12.1 101380 84
2001-11-12 10:01 51°22.424 2°49.777 14.6 18 12.1 101390 84
2001-11-12 10:02 51°22.643 2°49.686 12.8 24 12.1 101370 83
2001-11-12 10:03 51°22.874 2°49.598 11.2 30 12.1 101380 84
2001-11-12 10:04 51°23.104 2°49.518 13.7 14 12.1 101380 84
2001-11-12 10:05 51°23.333 2°49.435 14 19 12.2 101380 84
2001-11-12 10:06 51°23.561 2°49.351 14.4 18 12.1 101370 83
2001-11-12 10:07 51°23.788 2°49.268 13.8 26 12.1 101370 83
2001-11-12 10:08 51°24.017 2°49.19 13.5 26 12.1 101370 83
2001-11-12 10:09 51°24.242 2°49.111 14.3 20 12.2 101360 84
2001-11-12 10:10 51°24.474 2°49.032 12.7 26 12.2 101370 83
2001-11-12 10:11 51°24.705 2°48.957 11.7 28 12.2 101370 84
2001-11-12 10:12 51°24.938 2°48.892 13 31 12.1 101360 83
2001-11-12 10:13 51°25.172 2°48.831 13.7 24 12.2 101360 84
2001-11-12 10:14 51°25.41 2°48.787 13.3 22 12.1 101350 82
2001-11-12 10:15 51°25.644 2°48.733 9.3 34 12.2 101350 83
2001-11-12 10:16 51°25.88 2°48.688 11.7 28 12.1 101360 82
2001-11-12 10:17 51°26.112 2°48.639 10.1 39 12.1 101350 82
2001-11-12 10:18 51°26.347 2°48.587 11 41 12.1 101350 82
2001-11-12 10:19 51°26.587 2°48.537 13.9 26 12.2 101360 83
2001-11-12 10:20 51°26.82 2°48.493 11.5 30 12.2 101360 83
2001-11-12 10:21 51°27.057 2°48.453 14.8 43 12.1 101350 83
2001-11-12 10:22 51°27.294 2°48.404 9.6 36 12.1 101340 82
2001-11-12 10:23 51°27.529 2°48.362 11.8 36 12.1 101340 82
2001-11-12 10:24 51°27.766 2°48.322 16.8 24 12.1 101360 83
2001-11-12 10:25 51°28.003 2°48.285 14.8 28 12.1 101350 82
2001-11-12 10:26 51°28.242 2°48.246 16 35 12.1 101350 82
2001-11-12 10:27 51°28.483 2°48.208 14.5 20 12.1 101350 83
2001-11-12 10:28 51°28.721 2°48.168 12.8 22 12.1 101340 83
2001-11-12 10:29 51°28.959 2°48.133 13.2 32 12.1 101330 83
2001-11-12 10:30 51°29.197 2°48.106 12.6 35 12.1 101340 83
2001-11-12 10:31 51°29.434 2°48.072 12.5 34 12.1 101340 83
2001-11-12 10:32 51°29.672 2°48.037 15.4 22 12.1 101330 82
2001-11-12 10:33 51°29.911 2°48.006 11.4 30 12.1 101340 83
2001-11-12 10:34 51°30.15 2°47.97 11.3 38 12.1 101330 83
2001-11-12 10:35 51°30.391 2°47.942 11.6 38 12.1 101330 82
2001-11-12 10:36 51°30.63 2°47.912 13.5 38 12.1 101340 82
2001-11-12 10:37 51°30.869 2°47.879 16 32 12.1 101340 83
2001-11-12 10:38 51°31.107 2°47.847 17.5 26 12 101330 82
2001-11-12 10:39 51°31.346 2°47.821 12 37 12 101330 82
2001-11-12 10:40 51°31.585 2°47.792 13.6 29 12 101330 82
2001-11-12 10:41 51°31.824 2°47.763 17.1 22 12 101330 82
2001-11-12 10:42 51°32.063 2°47.737 14.6 35 12 101330 82
2001-11-12 10:43 51°32.301 2°47.713 16.9 24 12.1 101320 83
2001-11-12 10:44 51°32.539 2°47.684 10.2 30 12.1 101330 83
2001-11-12 10:45 51°32.778 2°47.656 11.8 41 12 101320 83
2001-11-12 10:46 51°33.017 2°47.629 17.6 30 12 101320 84
2001-11-12 10:47 51°33.202 2°47.598 8.5 34 11.9 101320 84
2001-11-12 10:48 51°33.297 2°47.589 6.8 45 11.9 101330 84
2001-11-12 10:49 51°33.365 2°47.604 7.6 42 11.9 101340 85
2001-11-12 10:50 51°33.419 2°47.626 9.9 38 11.8 101350 84
2001-11-12 10:51 51°33.469 2°47.655 6.9 37 11.8 101340 84
2001-11-12 10:52 51°33.518 2°47.678 11.9 25 11.8 101340 85
2001-11-12 10:53 51°33.561 2°47.697 13.5 25 11.8 101350 85
2001-11-12 10:54 51°33.598 2°47.705 13.4 356 11.8 101360 85
2001-11-12 10:55 51°33.633 2°47.688 12 346 11.8 101350 85
2001-11-12 10:56 51°33.667 2°47.636 13.5 350 11.8 101350 85
2001-11-12 10:57 51°33.711 2°47.571 15.3 360 11.8 101340 85
2001-11-12 10:58 51°33.782 2°47.539 13.6 21 11.7 101340 85
2001-11-12 10:59 51°33.858 2°47.511 15.7 26 11.7 101340 85
2001-11-12 11:00 51°33.928 2°47.472 13.6 4 11.8 101340 86
2001-11-12 11:01 51°34.002 2°47.43 14.2 8 11.8 101340 86
2001-11-12 11:02 51°34.083 2°47.399 15.4 17 11.7 101340 85
2001-11-12 11:03 51°34.163 2°47.366 14.1 17 11.7 101330 85
2001-11-12 11:04 51°34.236 2°47.325 12.5 16 11.7 101330 86
2001-11-12 11:05 51°34.313 2°47.286 15.6 24 11.8 101340 87
2001-11-12 11:06 51°34.386 2°47.24 13.1 18 11.7 101330 85
2001-11-12 11:07 51°34.464 2°47.223 5.4 36 11.6 101330 86
2001-11-12 11:08 51°34.521 2°47.237 5.9 33 11.6 101330 86
2001-11-12 11:09 51°34.562 2°47.27 8.4 24 11.5 101330 85
2001-11-12 11:10 51°34.593 2°47.313 6.5 41 11.6 101340 87
2001-11-12 11:11 51°34.619 2°47.36 6.4 331 11.6 101340 86
2001-11-12 11:12 51°34.643 2°47.408 4.5 316 11.5 101340 85
2001-11-12 11:13 51°34.664 2°47.456 2.7 213 11.5 101340 87
2001-11-12 11:14 51°34.687 2°47.505 0.2 70 11.5 101330 87
2001-11-12 11:15 51°34.709 2°47.552 0.6 82 11.5 101340 86
2001-11-12 11:16 51°34.729 2°47.599 0.3 29 11.5 101330 86
2001-11-12 11:17 51°34.749 2°47.647 1.3 64 11.3 101340 85
2001-11-12 11:18 51°34.772 2°47.694 1.8 212 11.5 101330 86
2001-11-12 11:19 51°34.824 2°47.726 8.7 36 11.6 101330 86
2001-11-12 11:20 51°34.871 2°47.711 10.7 355 11.5 101330 86
2001-11-12 11:21 51°34.892 2°47.706 7.1 321 11.5 101320 86
2001-11-12 11:22 51°34.905 2°47.72 8.4 312 11.5 101330 86
2001-11-12 11:23 51°34.915 2°47.74 8 312 11.4 101320 85
2001-11-12 11:24 51°34.922 2°47.762 7 294 11.4 101320 85
2001-11-12 11:25 51°34.931 2°47.783 8.4 319 11.4 101320 85
2001-11-12 11:26 51°34.942 2°47.795 8.9 336 11.4 101320 84
2001-11-12 11:27 51°34.958 2°47.805 9.9 336 11.4 101320 84
2001-11-12 11:28 51°34.974 2°47.814 8.7 331 11.3 101330 83
2001-11-12 11:29 51°34.988 2°47.821 8.4 330 11.4 101340 83
2001-11-12 11:30 51°35.007 2°47.828 11 352 11.5 101320 84
2001-11-12 11:31 51°35.035 2°47.834 10.7 8 11.5 101330 85
2001-11-12 11:32 51°35.065 2°47.843 9.4 359 11.6 101320 86
2001-11-12 11:33 51°35.092 2°47.858 10.7 355 11.5 101320 85
2001-11-12 11:34 51°35.117 2°47.877 10 352 11.5 101320 85
2001-11-12 11:35 51°35.144 2°47.897 9.6 356 11.5 101320 85
2001-11-12 11:36 51°35.169 2°47.919 10 348 11.5 101320 86
2001-11-12 11:37 51°35.196 2°47.945 9.5 354 11.4 101310 84
2001-11-12 11:38 51°35.222 2°47.973 9.8 11 11.4 101310 85
2001-11-12 11:39 51°35.251 2°48.003 9.3 25 11.4 101310 85
2001-11-12 11:40 51°35.28 2°48.035 10.2 12 11.5 101300 85
2001-11-12 11:41 51°35.309 2°48.067 7.1 26 11.5 101300 86
2001-11-12 11:42 51°35.341 2°48.1 5.1 40 11.5 101300 86
2001-11-12 11:43 51°35.375 2°48.135 6 37 11.5 101300 86
2001-11-12 11:44 51°35.407 2°48.169 5.4 37 11.5 101300 86
2001-11-12 11:45 51°35.445 2°48.193 8.5 27 11.4 101280 86
2001-11-12 11:46 51°35.489 2°48.166 11.4 340 11.4 101290 87
2001-11-12 11:47 51°35.475 2°48.117 8 284 11.5 101280 87
2001-11-12 11:48 51°35.378 2°48.083 8.5 295 11.4 101290 86
2001-11-12 11:49 51°35.268 2°48.059 5.4 277 11.4 101280 86
2001-11-12 11:50 51°35.183 2°48.041 5.3 274 11.4 101290 85
2001-11-12 11:51 51°35.109 2°48.014 8.4 286 11.5 101290 87
2001-11-12 11:52 51°35.037 2°47.991 6.7 284 11.5 101280 87
2001-11-12 11:53 51°34.959 2°47.979 6.4 272 11.6 101280 87
2001-11-12 11:54 51°34.883 2°47.964 6.3 279 11.5 101280 87
2001-11-12 11:55 51°34.804 2°47.952 6.3 285 11.5 101280 87
2001-11-12 11:56 51°34.725 2°47.94 6.9 279 11.5 101270 86
2001-11-12 11:57 51°34.649 2°47.911 7.5 279 11.6 101270 87
2001-11-12 11:58 51°34.571 2°47.892 7.3 282 11.4 101280 86
2001-11-12 11:59 51°34.496 2°47.861 7.9 293 11.4 101280 86
2001-11-12 12:00 51°34.421 2°47.833 7.2 283 11.4 101280 86
2001-11-12 12:01 51°34.342 2°47.817 6.3 274 11.4 101280 86
2001-11-12 12:02 51°34.26 2°47.814 7.4 281 11.4 101280 86
2001-11-12 12:03 51°34.182 2°47.794 6.4 279 11.4 101280 87
2001-11-12 12:04 51°34.104 2°47.778 5.6 279 11.5 101270 87
2001-11-12 12:05 51°34.024 2°47.765 6.1 277 11.5 101280 87
2001-11-12 12:06 51°33.943 2°47.75 5.8 278 11.5 101280 87
2001-11-12 12:07 51°33.862 2°47.736 8 288 11.5 101280 87
2001-11-12 12:08 51°33.781 2°47.726 6.5 273 11.4 101280 86
2001-11-12 12:09 51°33.699 2°47.715 5.6 280 11.4 101270 87
2001-11-12 12:10 51°33.616 2°47.708 5.9 289 11.5 101270 87
2001-11-12 12:11 51°33.534 2°47.7 5.3 274 11.6 101280 87
2001-11-12 12:12 51°33.448 2°47.705 6.2 273 11.6 101280 88
2001-11-12 12:13 51°33.363 2°47.715 7.3 256 11.5 101270 87
2001-11-12 12:14 51°33.276 2°47.732 6.8 265 11.4 101270 87
2001-11-12 12:15 51°33.192 2°47.735 6.2 277 11.3 101280 87
2001-11-12 12:16 51°33.112 2°47.717 7.7 291 11.3 101260 87
2001-11-12 12:17 51°33.029 2°47.703 7.1 292 11.4 101260 87
2001-11-12 12:18 51°32.945 2°47.696 5.5 273 11.4 101260 87
2001-11-12 12:19 51°32.858 2°47.699 5.3 259 11.4 101270 87
2001-11-12 12:20 51°32.769 2°47.712 6.3 251 11.4 101270 87
2001-11-12 12:21 51°32.68 2°47.731 8 266 11.4 101270 87
2001-11-12 12:22 51°32.592 2°47.74 5 271 11.4 101270 86
2001-11-12 12:23 51°32.508 2°47.73 4.9 279 11.4 101260 87
2001-11-12 12:24 51°32.42 2°47.727 7.4 264 11.4 101260 88
2001-11-12 12:25 51°32.333 2°47.735 8.6 262 11.4 101260 87
2001-11-12 12:26 51°32.244 2°47.75 6.3 258 11.3 101260 87
2001-11-12 12:27 51°32.155 2°47.778 5.8 249 11.4 101260 87
2001-11-12 12:28 51°32.067 2°47.792 6.9 264 11.4 101260 88
2001-11-12 12:29 51°31.983 2°47.78 5.7 263 11.5 101260 88
2001-11-12 12:30 51°31.896 2°47.774 5.8 254 11.4 101260 87
2001-11-12 12:31 51°31.808 2°47.784 6.1 250 11.4 101250 87
2001-11-12 12:32 51°31.72 2°47.79 6.6 266 11.4 101260 87
2001-11-12 12:33 51°31.63 2°47.798 6.2 252 11.3 101260 87
2001-11-12 12:34 51°31.541 2°47.799 5.6 271 11.4 101260 87
2001-11-12 12:35 51°31.446 2°47.798 5.8 277 11.3 101260 87
2001-11-12 12:36 51°31.323 2°47.794 8.4 263 11.3 101260 87
2001-11-12 12:37 51°31.189 2°47.792 7.2 260 11.4 101260 87
2001-11-12 12:38 51°31.046 2°47.818 6.2 272 11.4 101260 88
2001-11-12 12:39 51°30.9 2°47.843 6.2 272 11.4 101250 87
2001-11-12 12:40 51°30.754 2°47.865 4.5 278 11.4 101250 87
2001-11-12 12:41 51°30.608 2°47.89 7.2 263 11.4 101260 88
2001-11-12 12:42 51°30.461 2°47.918 5.7 270 11.5 101250 88
2001-11-12 12:43 51°30.316 2°47.944 6 268 11.5 101250 88
2001-11-12 12:44 51°30.169 2°47.968 6.2 270 11.4 101250 88
2001-11-12 12:45 51°30.023 2°47.997 7.8 260 11.4 101250 87
2001-11-12 12:46 51°29.869 2°48.025 5 277 11.3 101250 87
2001-11-12 12:47 51°29.71 2°48.054 6.5 277 11.3 101250 87
2001-11-12 12:48 51°29.549 2°48.083 5.5 270 11.3 101250 87
2001-11-12 12:49 51°29.388 2°48.11 5.4 275 11.3 101250 87
2001-11-12 12:50 51°29.227 2°48.142 6 273 11.4 101250 87
2001-11-12 12:51 51°29.065 2°48.168 5.5 270 11.3 101250 87
2001-11-12 12:52 51°28.903 2°48.194 5.4 276 11.4 101250 87
2001-11-12 12:53 51°28.743 2°48.224 6 282 11.3 101250 86
2001-11-12 12:54 51°28.583 2°48.239 6.5 265 11.4 101250 87
2001-11-12 12:55 51°28.422 2°48.269 5.4 275 11.4 101250 87
2001-11-12 12:56 51°28.258 2°48.286 5.8 281 11.4 101250 87
2001-11-12 12:57 51°28.093 2°48.306 6.5 285 11.4 101260 87
2001-11-12 12:58 51°27.928 2°48.316 5.1 267 11.4 101250 87
2001-11-12 12:59 51°27.764 2°48.342 7.7 282 11.4 101260 87
2001-11-12 13:00 51°27.599 2°48.354 5.5 273 11.3 101250 86
2001-11-12 13:01 51°27.434 2°48.377 5.4 269 11.3 101250 86
2001-11-12 13:02 51°27.269 2°48.393 5.4 276 11.2 101250 86
2001-11-12 13:03 51°27.148 2°48.405 6.8 257 11.3 101260 86
2001-11-12 13:04 51°27.067 2°48.413 5.7 252 11.2 101270 86
2001-11-12 13:05 51°27.002 2°48.425 5.9 248 11.3 101260 86
2001-11-12 13:06 51°26.943 2°48.43 4.8 238 11.3 101260 85
2001-11-12 13:07 51°26.887 2°48.436 6.8 254 11.4 101260 87
2001-11-12 13:08 51°26.833 2°48.437 7.3 253 11.5 101260 86
2001-11-12 13:09 51°26.78 2°48.436 7.3 260 11.4 101250 86
2001-11-12 13:10 51°26.727 2°48.436 7.3 264 11.3 101250 84
2001-11-12 13:11 51°26.674 2°48.438 7.2 255 11.2 101250 84
2001-11-12 13:12 51°26.619 2°48.441 6.1 254 11.2 101250 83
2001-11-12 13:13 51°26.566 2°48.443 7.3 254 11.3 101250 84
2001-11-12 13:14 51°26.513 2°48.446 6 242 11.4 101250 84
2001-11-12 13:15 51°26.46 2°48.446 6.1 252 11.3 101250 84
2001-11-12 13:16 51°26.407 2°48.441 6.4 255 11.4 101240 85
2001-11-12 13:17 51°26.354 2°48.44 5.3 249 11.4 101250 84
2001-11-12 13:18 51°26.301 2°48.438 6.5 260 11.4 101250 84
2001-11-12 13:19 51°26.249 2°48.436 6.5 256 11.5 101250 85
2001-11-12 13:20 51°26.197 2°48.433 6 257 11.5 101240 85
2001-11-12 13:21 51°26.162 2°48.432 6.1 252 11.4 101250 85
2001-11-12 13:22 51°26.14 2°48.432 6.6 267 11.4 101250 85
2001-11-12 13:23 51°26.128 2°48.435 4.9 268 11.5 101250 85
2001-11-12 13:24 51°26.122 2°48.441 5.3 243 11.5 101250 86
2001-11-12 13:25 51°26.12 2°48.448 5 258 11.5 101250 86
2001-11-12 13:26 51°26.119 2°48.458 6.3 263 11.5 101250 85
2001-11-12 13:27 51°26.113 2°48.453 6 297 11.5 101250 86
2001-11-12 13:28 51°26.113 2°48.414 8.3 344 11.5 101240 86
2001-11-12 13:29 51°26.125 2°48.384 7.6 336 11.5 101240 86
2001-11-12 13:30 51°26.136 2°48.369 7.2 332 11.5 101240 86
2001-11-12 13:31 51°26.145 2°48.363 7.1 332 11.5 101250 85
2001-11-12 13:32 51°26.153 2°48.368 5.9 317 11.5 101250 85
2001-11-12 13:33 51°26.159 2°48.38 6.4 317 11.5 101250 85
2001-11-12 13:34 51°26.164 2°48.396 5.9 292 11.4 101250 84
2001-11-12 13:35 51°26.17 2°48.414 5.5 252 11.4 101240 85
2001-11-12 13:36 51°26.175 2°48.432 5.9 247 11.5 101240 85
2001-11-12 13:37 51°26.177 2°48.446 5.2 232 11.5 101240 86
2001-11-12 13:38 51°26.17 2°48.458 4.8 236 11.5 101240 86
2001-11-12 13:39 51°26.156 2°48.468 5.9 233 11.5 101250 85
2001-11-12 13:40 51°26.139 2°48.471 4.6 249 11.5 101250 86
2001-11-12 13:41 51°26.126 2°48.473 5.5 241 11.5 101250 85
2001-11-12 13:42 51°26.116 2°48.476 6.1 246 11.5 101250 85
2001-11-12 13:43 51°26.111 2°48.479 6 248 11.5 101250 85
2001-11-12 13:44 51°26.108 2°48.483 5.6 252 11.5 101250 86
2001-11-12 13:45 51°26.105 2°48.489 5.8 256 11.5 101250 84
2001-11-12 13:46 51°26.1 2°48.493 6.7 261 11.5 101250 84
2001-11-12 13:47 51°26.082 2°48.489 5.7 245 11.5 101250 84
2001-11-12 13:48 51°26.048 2°48.497 5.3 219 11.5 101240 84
2001-11-12 13:49 51°25.994 2°48.515 5.7 234 11.5 101250 84
2001-11-12 13:50 51°25.927 2°48.516 5.8 245 11.5 101250 84
2001-11-12 13:51 51°25.856 2°48.522 4.7 228 11.5 101250 84
2001-11-12 13:52 51°25.784 2°48.545 5.1 229 11.5 101250 84
2001-11-12 13:53 51°25.713 2°48.571 4.9 226 11.5 101250 84
2001-11-12 13:54 51°25.641 2°48.59 5.1 237 11.5 101250 84
2001-11-12 13:55 51°25.569 2°48.6 4.7 236 11.5 101240 85
2001-11-12 13:56 51°25.496 2°48.617 4.6 250 11.6 101240 84
2001-11-12 13:57 51°25.423 2°48.637 5.1 253 11.5 101240 84
2001-11-12 13:58 51°25.349 2°48.656 3.8 240 11.5 101240 84
2001-11-12 13:59 51°25.275 2°48.683 4.3 233 11.5 101240 85
2001-11-12 14:00 51°25.2 2°48.711 4.7 223 11.5 101250 85
2001-11-12 14:01 51°25.125 2°48.742 4.2 221 11.6 101240 85
2001-11-12 14:02 51°25.05 2°48.776 3.9 235 11.6 101250 85
2001-11-12 14:03 51°24.976 2°48.807 4.6 246 11.6 101240 85
2001-11-12 14:04 51°24.9 2°48.83 4.9 243 11.5 101240 85
2001-11-12 14:05 51°24.824 2°48.842 5 251 11.5 101240 85
2001-11-12 14:06 51°24.748 2°48.855 5.2 235 11.6 101240 85
2001-11-12 14:07 51°24.67 2°48.864 5.3 250 11.6 101240 85
2001-11-12 14:08 51°24.594 2°48.881 5 254 11.5 101250 84
2001-11-12 14:09 51°24.517 2°48.905 5.1 238 11.5 101240 84
2001-11-12 14:10 51°24.439 2°48.926 5.5 245 11.5 101240 84
2001-11-12 14:11 51°24.362 2°48.943 5.6 244 11.5 101230 85
2001-11-12 14:12 51°24.286 2°48.969 4.5 245 11.5 101240 84
2001-11-12 14:13 51°24.209 2°49.002 5.4 248 11.5 101240 85
2001-11-12 14:14 51°24.133 2°49.031 5.8 244 11.5 101240 84
2001-11-12 14:15 51°24.058 2°49.063 4.7 231 11.5 101240 84
2001-11-12 14:16 51°23.986 2°49.107 5.1 230 11.5 101240 84
2001-11-12 14:17 51°23.914 2°49.151 4.7 236 11.5 101230 84
2001-11-12 14:18 51°23.841 2°49.187 4.8 246 11.5 101240 84
2001-11-12 14:19 51°23.767 2°49.219 5.7 249 11.5 101240 84
2001-11-12 14:20 51°23.692 2°49.251 5.1 246 11.5 101230 84
2001-11-12 14:21 51°23.619 2°49.29 4.6 243 11.5 101230 84
2001-11-12 14:22 51°23.545 2°49.331 4.4 232 11.5 101230 85
2001-11-12 14:23 51°23.469 2°49.369 5.2 246 11.5 101230 85
2001-11-12 14:24 51°23.395 2°49.408 5.6 243 11.5 101230 85
2001-11-12 14:25 51°23.319 2°49.445 5 244 11.4 101230 85
2001-11-12 14:26 51°23.242 2°49.479 5.2 240 11.3 101230 85
2001-11-12 14:27 51°23.165 2°49.504 4.9 242 11.3 101220 85
2001-11-12 14:28 51°23.086 2°49.523 5.1 250 11.3 101220 86
2001-11-12 14:29 51°23.009 2°49.535 4.5 253 11.2 101220 86
2001-11-12 14:30 51°22.926 2°49.545 4.2 268 11.2 101230 86
2001-11-12 14:31 51°22.747 2°49.592 7.7 297 11.3 101210 87
2001-11-12 14:32 51°22.53 2°49.64 8.8 296 11.3 101210 86
2001-11-12 14:33 51°22.309 2°49.724 8.3 291 11.3 101210 86
2001-11-12 14:34 51°22.09 2°49.818 7.3 298 11.3 101210 86
2001-11-12 14:35 51°21.875 2°49.913 7.9 294 11.3 101220 86
2001-11-12 14:36 51°21.658 2°49.994 8.8 299 11.4 101210 86
2001-11-12 14:37 51°21.441 2°50.082 8.6 291 11.4 101210 86
2001-11-12 14:38 51°21.294 2°50.096 4.6 269 11.3 101220 86
2001-11-12 14:39 51°21.21 2°50.112 5.6 259 11.4 101220 86
2001-11-12 14:40 51°21.142 2°50.127 5.7 254 11.3 101220 85
2001-11-12 14:41 51°21.082 2°50.142 5.4 254 11.3 101220 86
2001-11-12 14:42 51°21.023 2°50.157 5.3 249 11.3 101220 86
2001-11-12 14:43 51°20.965 2°50.176 5.2 252 11.3 101220 86
2001-11-12 14:44 51°20.907 2°50.198 5.3 247 11.3 101220 86
2001-11-12 14:45 51°20.848 2°50.219 5 254 11.3 101220 86
2001-11-12 14:46 51°20.788 2°50.238 4 258 11.3 101220 86
2001-11-12 14:47 51°20.727 2°50.252 6 257 11.3 101220 86
2001-11-12 14:48 51°20.666 2°50.262 5.7 246 11.4 101220 86
2001-11-12 14:49 51°20.605 2°50.275 5 251 11.3 101220 86
2001-11-12 14:50 51°20.542 2°50.292 3.8 265 11.3 101220 86
2001-11-12 14:51 51°20.48 2°50.306 5.9 255 11.3 101220 86
2001-11-12 14:52 51°20.418 2°50.32 5.8 253 11.4 101220 87
2001-11-12 14:53 51°20.357 2°50.339 5 252 11.4 101220 87
2001-11-12 14:54 51°20.295 2°50.354 5.1 248 11.3 101220 87
2001-11-12 14:55 51°20.233 2°50.367 5.1 226 11.4 101220 87
2001-11-12 14:56 51°20.174 2°50.391 5.3 245 11.3 101220 87
2001-11-12 14:57 51°20.115 2°50.412 4.6 251 11.3 101210 87
2001-11-12 14:58 51°20.056 2°50.435 4.5 240 11.4 101220 87
2001-11-12 14:59 51°19.998 2°50.46 5.2 250 11.3 101220 87
2001-11-12 15:00 51°19.941 2°50.484 4.2 241 11.3 101220 87
2001-11-12 15:01 51°19.883 2°50.506 5.2 244 11.3 101220 87
2001-11-12 15:02 51°19.825 2°50.523 4.4 240 11.3 101220 87
2001-11-12 15:03 51°19.768 2°50.542 5 251 11.3 101220 87
2001-11-12 15:04 51°19.711 2°50.56 4.4 234 11.4 101220 87
2001-11-12 15:05 51°19.654 2°50.58 5 219 11.3 101220 87
2001-11-12 15:06 51°19.597 2°50.6 4.6 224 11.3 101220 87
2001-11-12 15:07 51°19.54 2°50.621 4.3 218 11.3 101220 87
2001-11-12 15:08 51°19.483 2°50.642 4.5 229 11.3 101220 87
2001-11-12 15:09 51°19.425 2°50.663 4.4 234 11.3 101220 87
2001-11-12 15:10 51°19.366 2°50.686 5 232 11.3 101220 87
2001-11-12 15:11 51°19.306 2°50.711 5.2 233 11.3 101220 87
2001-11-12 15:12 51°19.246 2°50.736 5.4 230 11.3 101220 87
2001-11-12 15:13 51°19.187 2°50.762 5.6 238 11.3 101220 86
2001-11-12 15:14 51°19.127 2°50.788 4 226 11.3 101220 86
2001-11-12 15:15 51°19.067 2°50.811 5.2 227 11.3 101220 87
2001-11-12 15:16 51°19.006 2°50.832 4.7 316 11.3 101220 86
2001-11-12 15:17 51°18.945 2°50.852 5 229 11.3 101220 86
2001-11-12 15:18 51°18.883 2°50.872 5 240 11.2 101220 86
2001-11-12 15:19 51°18.821 2°50.892 4.9 231 11.3 101220 86
2001-11-12 15:20 51°18.76 2°50.913 4.7 236 11.3 101220 86
2001-11-12 15:21 51°18.711 2°50.916 5.4 239 11.3 101220 86
2001-11-12 15:22 51°18.674 2°50.912 5.2 245 11.3 101220 85
2001-11-12 15:23 51°18.642 2°50.902 4.5 248 11.3 101220 86
2001-11-12 15:24 51°18.614 2°50.89 5.4 239 11.4 101220 85
2001-11-12 15:25 51°18.589 2°50.877 5.1 247 11.4 101220 85
2001-11-12 15:26 51°18.565 2°50.865 5.3 251 11.4 101220 85
2001-11-12 15:27 51°18.543 2°50.853 4.6 247 11.4 101220 86
2001-11-12 15:28 51°18.523 2°50.84 5.1 249 11.5 101220 86
2001-11-12 15:29 51°18.504 2°50.827 4.2 265 11.6 101220 87
2001-11-12 15:30 51°18.486 2°50.815 5 257 11.6 101220 87
2001-11-12 15:31 51°18.47 2°50.802 4.8 251 11.5 101210 86
2001-11-12 15:32 51°18.452 2°50.791 4.7 246 11.5 101210 86
2001-11-12 15:33 51°18.435 2°50.778 5.2 251 11.4 101210 86
2001-11-12 15:34 51°18.419 2°50.766 4.3 242 11.4 101220 86
2001-11-12 15:35 51°18.402 2°50.755 5.1 248 11.5 101210 86
2001-11-12 15:36 51°18.385 2°50.743 5.4 250 11.5 101210 86
2001-11-12 15:37 51°18.368 2°50.73 5.1 247 11.4 101210 86
2001-11-12 15:38 51°18.352 2°50.718 4.7 243 11.4 101220 85
2001-11-12 15:39 51°18.335 2°50.706 5 242 11.4 101210 85
2001-11-12 15:40 51°18.318 2°50.694 4.4 239 11.4 101220 84
2001-11-12 15:41 51°18.3 2°50.682 4.7 240 11.4 101220 84
2001-11-12 15:42 51°18.283 2°50.669 4.7 243 11.4 101220 84
2001-11-12 15:43 51°18.255 2°50.66 4.5 217 11.4 101210 84
2001-11-12 15:44 51°18.224 2°50.684 4.5 172 11.4 101220 84
2001-11-12 15:45 51°18.21 2°50.711 3 146 11.4 101220 84
2001-11-12 15:46 51°18.205 2°50.729 4.7 118 11.5 101220 83
2001-11-12 15:47 51°18.208 2°50.753 3.2 115 11.5 101220 83
2001-11-12 15:48 51°18.215 2°50.786 2.5 116 11.6 101220 83
2001-11-12 15:49 51°18.225 2°50.819 2.4 111 11.6 101220 84
2001-11-12 15:50 51°18.236 2°50.851 3.3 115 11.6 101220 84
2001-11-12 15:51 51°18.248 2°50.882 2.4 116 11.5 101220 83
2001-11-12 15:52 51°18.257 2°50.916 2.8 114 11.5 101220 83
2001-11-12 15:53 51°18.266 2°50.951 2.2 118 11.6 101220 84
2001-11-12 15:54 51°18.275 2°50.982 2.8 84 11.6 101210 84
2001-11-12 15:55 51°18.364 2°50.92 12.4 5 11.6 101210 84
2001-11-12 15:56 51°18.483 2°50.642 14.5 354 11.7 101200 85
2001-11-12 15:57 51°18.581 2°50.309 15.2 352 11.6 101190 85
2001-11-12 15:58 51°18.683 2°49.977 15.9 1 11.6 101200 84
2001-11-12 15:59 51°18.79 2°49.652 14 344 11.6 101200 85
2001-11-12 16:00 51°18.897 2°49.327 15.4 358 11.6 101200 84
2001-11-12 16:01 51°18.995 2°48.989 14.5 351 11.6 101200 85
2001-11-12 16:02 51°19.094 2°48.645 16.1 348 11.6 101190 85
2001-11-12 16:03 51°19.208 2°48.318 15.2 357 11.6 101200 84
2001-11-12 16:04 51°19.31 2°48.075 11.8 348 11.5 101200 85
2001-11-12 16:05 51°19.261 2°47.904 4.5 264 11.5 101200 84
2001-11-12 16:06 51°19.192 2°47.971 2.2 147 11.5 101220 85
2001-11-12 16:07 51°19.185 2°47.997 2.9 113 11.5 101210 85
2001-11-12 16:08 51°19.189 2°48.022 3.2 113 11.5 101210 85
2001-11-12 16:09 51°19.197 2°48.062 3.3 104 11.5 101220 85
2001-11-12 16:10 51°19.197 2°48.112 3.6 144 11.5 101220 85
2001-11-12 16:11 51°19.195 2°48.163 4.3 117 11.4 101220 85
2001-11-12 16:12 51°19.2 2°48.207 2.8 114 11.4 101210 85
2001-11-12 16:13 51°19.205 2°48.243 2.8 124 11.4 101210 85
2001-11-12 16:14 51°19.21 2°48.275 2.6 111 11.5 101220 86
2001-11-12 16:15 51°19.217 2°48.302 2.6 103 11.5 101220 86
2001-11-12 16:16 51°19.224 2°48.327 3.3 115 11.4 101220 86
2001-11-12 16:17 51°19.229 2°48.352 2.5 111 11.5 101220 86
2001-11-12 16:18 51°19.231 2°48.38 4 115 11.5 101220 86
2001-11-12 16:19 51°19.232 2°48.41 2 118 11.5 101220 86
2001-11-12 16:20 51°19.194 2°48.567 1.5 293 11.5 101220 87
2001-11-12 16:21 51°19.106 2°48.858 1.9 302 11.5 101220 86
2001-11-12 16:22 51°19.028 2°49.167 2.3 293 11.5 101220 86
2001-11-12 16:23 51°18.895 2°49.451 2.3 296 11.5 101230 86
2001-11-12 16:24 51°18.779 2°49.744 3.4 305 11.5 101220 86
2001-11-12 16:25 51°18.645 2°50.03 2.2 302 11.5 101220 86
2001-11-12 16:26 51°18.509 2°50.313 4.1 302 11.5 101220 86
2001-11-12 16:27 51°18.363 2°50.585 3.2 291 11.5 101220 86
2001-11-12 16:28 51°18.224 2°50.862 4.4 301 11.4 101220 86
2001-11-12 16:29 51°18.074 2°51.125 4.1 302 11.4 101220 86
2001-11-12 16:30 51°17.917 2°51.38 4.3 296 11.4 101230 86
2001-11-12 16:31 51°17.76 2°51.633 3.9 294 11.4 101220 86
2001-11-12 16:32 51°17.6 2°51.888 4.3 297 11.4 101230 86
2001-11-12 16:33 51°17.411 2°52.101 5.6 298 11.4 101220 86
2001-11-12 16:34 51°17.206 2°52.284 6.1 294 11.4 101220 87
2001-11-12 16:35 51°17.003 2°52.464 5.9 308 11.4 101220 86
2001-11-12 16:36 51°16.792 2°52.622 6.2 305 11.4 101220 87
2001-11-12 16:37 51°16.59 2°52.81 5.5 298 11.4 101220 86
2001-11-12 16:38 51°16.437 2°52.939 3.4 260 11.3 101220 87
2001-11-12 16:39 51°16.301 2°53.045 5.2 284 11.3 101220 87
2001-11-12 16:40 51°16.108 2°53.209 6.5 303 11.3 101220 87
2001-11-12 16:41 51°15.909 2°53.379 6.3 295 11.3 101210 87
2001-11-12 16:42 51°15.71 2°53.557 5.5 297 11.2 101220 87
2001-11-12 16:43 51°15.515 2°53.738 5.8 298 11.2 101220 88
2001-11-12 16:44 51°15.319 2°53.921 5.8 301 11.2 101220 88
2001-11-12 16:45 51°15.132 2°54.11 5.7 302 11.2 101220 89
2001-11-12 16:46 51°14.947 2°54.288 5 299 11.2 101220 89
2001-11-12 16:47 51°14.777 2°54.487 4.8 299 11.2 101230 89
2001-11-12 16:48 51°14.619 2°54.684 5.1 301 11.1 101220 89
2001-11-12 16:49 51°14.473 2°54.896 5.6 314 11.1 101230 89
2001-11-12 16:50 51°14.339 2°55.126 5 317 11 101220 89
2001-11-12 16:51 51°14.208 2°55.345 6.6 328 11 101230 90
2001-11-12 16:52 51°14.062 2°55.464 4.4 328 11 101230 90
2001-11-12 16:53 51°13.945 2°55.551 4.7 330 11 101230 90
2001-11-12 16:54 51°13.824 2°55.638 5.1 331 11 101230 90
2001-11-12 16:55 51°13.725 2°55.768 5 337 11 101230 90
2001-11-12 16:56 51°13.65 2°55.941 4.2 327 10.9 101230 90
2001-11-12 16:57 51°13.602 2°56.053 2.1 318 10.8 101240 90
2001-11-12 16:58 51°13.575 2°56.134 1.2 268 10.7 101240 90
2001-11-12 16:59 51°13.553 2°56.214 1.2 253 10.7 101240 90
2001-11-12 17:00 51°13.523 2°56.28 1.8 295 10.7 101240 91
2001-11-12 17:01 51°13.517 2°56.285 1 220 10.7 101240 91
2001-11-12 17:02 51°13.514 2°56.279 0.8 283 10.6 101250 91
2001-11-12 17:03 51°13.515 2°56.27 2.2 331 10.7 101250 91
2001-11-12 17:04 51°13.52 2°56.273 2.2 349 10.6 101250 91
2001-11-12 17:05 51°13.527 2°56.226 2.1 2 10.7 101250 91
2001-11-12 17:06 51°13.55 2°56.155 3.4 18 10.6 101240 91
2001-11-12 17:07 51°13.576 2°56.094 1.9 30 10.6 101250 91
2001-11-12 17:08 51°13.606 2°56.041 1.6 24 10.6 101250 91
2001-11-12 17:09 51°13.636 2°55.994 1.9 27 10.6 101250 91
2001-11-12 17:10 51°13.662 2°55.952 2 33 10.6 101250 91
2001-11-12 17:11 51°13.679 2°55.917 2.3 92 10.6 101250 91
2001-11-12 17:12 51°13.684 2°55.907 0.2 78 10.6 101250 91
2001-11-12 17:13 51°13.686 2°55.906 0.3 11 10.6 101250 91
2001-11-12 17:14 51°13.686 2°55.907 0.1 71 10.5 101250 91